sensor_id;sensor_type;location;lat;lon;timestamp;P1;durP1;ratioP1;P2;durP2;ratioP2
71888;SDS011;59762;49.998;14.858;2023-11-18T00:01:50;5.78;;;1.88;;
71888;SDS011;59762;49.998;14.858;2023-11-18T00:04:16;1.70;;;0.70;;
71888;SDS011;59762;49.998;14.858;2023-11-18T00:06:42;1.45;;;1.35;;
71888;SDS011;59762;49.998;14.858;2023-11-18T00:09:12;1.92;;;1.30;;
71888;SDS011;59762;49.998;14.858;2023-11-18T00:11:39;2.05;;;1.08;;
71888;SDS011;59762;49.998;14.858;2023-11-18T00:14:05;1.48;;;1.23;;
71888;SDS011;59762;49.998;14.858;2023-11-18T00:16:31;3.58;;;1.10;;
71888;SDS011;59762;49.998;14.858;2023-11-18T00:18:57;1.00;;;0.88;;
71888;SDS011;59762;49.998;14.858;2023-11-18T00:21:24;1.00;;;0.90;;
71888;SDS011;59762;49.998;14.858;2023-11-18T00:23:50;2.50;;;1.10;;
71888;SDS011;59762;49.998;14.858;2023-11-18T00:26:16;1.10;;;0.80;;
71888;SDS011;59762;49.998;14.858;2023-11-18T00:28:42;0.77;;;0.75;;
71888;SDS011;59762;49.998;14.858;2023-11-18T00:31:07;2.90;;;1.10;;
71888;SDS011;59762;49.998;14.858;2023-11-18T00:33:33;1.13;;;1.02;;
71888;SDS011;59762;49.998;14.858;2023-11-18T00:35:59;3.10;;;1.27;;
71888;SDS011;59762;49.998;14.858;2023-11-18T00:38:26;2.45;;;1.27;;
71888;SDS011;59762;49.998;14.858;2023-11-18T00:40:51;2.83;;;1.30;;
71888;SDS011;59762;49.998;14.858;2023-11-18T00:43:18;4.28;;;1.25;;
71888;SDS011;59762;49.998;14.858;2023-11-18T00:45:43;4.35;;;0.98;;
71888;SDS011;59762;49.998;14.858;2023-11-18T00:48:09;1.95;;;1.35;;
71888;SDS011;59762;49.998;14.858;2023-11-18T00:50:35;2.90;;;1.20;;
71888;SDS011;59762;49.998;14.858;2023-11-18T00:53:01;4.75;;;2.72;;
71888;SDS011;59762;49.998;14.858;2023-11-18T00:55:26;6.00;;;2.60;;
71888;SDS011;59762;49.998;14.858;2023-11-18T00:57:52;1.45;;;1.08;;
71888;SDS011;59762;49.998;14.858;2023-11-18T01:00:18;1.65;;;1.20;;
71888;SDS011;59762;49.998;14.858;2023-11-18T01:02:52;9.57;;;1.63;;
71888;SDS011;59762;49.998;14.858;2023-11-18T01:05:19;1.40;;;1.30;;
71888;SDS011;59762;49.998;14.858;2023-11-18T01:07:46;3.20;;;1.45;;
71888;SDS011;59762;49.998;14.858;2023-11-18T01:10:12;1.00;;;0.90;;
71888;SDS011;59762;49.998;14.858;2023-11-18T01:12:42;0.80;;;0.80;;
71888;SDS011;59762;49.998;14.858;2023-11-18T01:15:10;2.13;;;1.63;;
71888;SDS011;59762;49.998;14.858;2023-11-18T01:17:38;2.53;;;1.08;;
71888;SDS011;59762;49.998;14.858;2023-11-18T01:20:04;1.35;;;0.85;;
71888;SDS011;59762;49.998;14.858;2023-11-18T01:22:39;2.08;;;1.38;;
71888;SDS011;59762;49.998;14.858;2023-11-18T01:25:05;1.30;;;1.00;;
71888;SDS011;59762;49.998;14.858;2023-11-18T01:27:31;1.58;;;1.38;;
71888;SDS011;59762;49.998;14.858;2023-11-18T01:29:59;2.80;;;1.42;;
71888;SDS011;59762;49.998;14.858;2023-11-18T01:32:25;3.17;;;1.17;;
71888;SDS011;59762;49.998;14.858;2023-11-18T01:34:51;1.98;;;1.20;;
71888;SDS011;59762;49.998;14.858;2023-11-18T01:37:18;1.63;;;1.08;;
71888;SDS011;59762;49.998;14.858;2023-11-18T01:39:46;1.35;;;1.05;;
71888;SDS011;59762;49.998;14.858;2023-11-18T01:42:12;1.33;;;1.17;;
71888;SDS011;59762;49.998;14.858;2023-11-18T01:44:38;5.05;;;1.38;;
71888;SDS011;59762;49.998;14.858;2023-11-18T01:47:04;2.97;;;1.35;;
71888;SDS011;59762;49.998;14.858;2023-11-18T01:49:32;1.05;;;0.75;;
71888;SDS011;59762;49.998;14.858;2023-11-18T01:52:05;2.85;;;1.52;;
71888;SDS011;59762;49.998;14.858;2023-11-18T01:54:34;1.40;;;1.17;;
71888;SDS011;59762;49.998;14.858;2023-11-18T01:57:03;1.92;;;1.42;;
71888;SDS011;59762;49.998;14.858;2023-11-18T01:59:31;4.43;;;1.42;;
71888;SDS011;59762;49.998;14.858;2023-11-18T02:01:58;2.58;;;1.45;;
71888;SDS011;59762;49.998;14.858;2023-11-18T02:04:25;1.88;;;1.20;;
71888;SDS011;59762;49.998;14.858;2023-11-18T02:06:51;1.30;;;1.20;;
71888;SDS011;59762;49.998;14.858;2023-11-18T02:09:18;2.03;;;1.00;;
71888;SDS011;59762;49.998;14.858;2023-11-18T02:14:29;3.80;;;1.60;;
71888;SDS011;59762;49.998;14.858;2023-11-18T02:16:59;2.10;;;1.63;;
71888;SDS011;59762;49.998;14.858;2023-11-18T02:19:27;4.60;;;1.52;;
71888;SDS011;59762;49.998;14.858;2023-11-18T02:21:55;1.80;;;1.05;;
71888;SDS011;59762;49.998;14.858;2023-11-18T02:24:28;2.35;;;1.70;;
71888;SDS011;59762;49.998;14.858;2023-11-18T02:27:06;1.90;;;1.57;;
71888;SDS011;59762;49.998;14.858;2023-11-18T02:29:36;1.50;;;1.05;;
71888;SDS011;59762;49.998;14.858;2023-11-18T02:32:05;1.65;;;1.38;;
71888;SDS011;59762;49.998;14.858;2023-11-18T02:34:45;3.33;;;1.30;;
71888;SDS011;59762;49.998;14.858;2023-11-18T02:37:18;6.80;;;1.83;;
71888;SDS011;59762;49.998;14.858;2023-11-18T02:39:47;3.38;;;1.90;;
71888;SDS011;59762;49.998;14.858;2023-11-18T02:42:19;2.72;;;2.13;;
71888;SDS011;59762;49.998;14.858;2023-11-18T02:44:47;2.15;;;1.45;;
71888;SDS011;59762;49.998;14.858;2023-11-18T02:47:14;2.65;;;1.40;;
71888;SDS011;59762;49.998;14.858;2023-11-18T02:49:41;3.38;;;1.95;;
71888;SDS011;59762;49.998;14.858;2023-11-18T02:52:07;2.42;;;1.40;;
71888;SDS011;59762;49.998;14.858;2023-11-18T02:54:35;1.30;;;1.20;;
71888;SDS011;59762;49.998;14.858;2023-11-18T02:57:00;2.70;;;1.58;;
71888;SDS011;59762;49.998;14.858;2023-11-18T02:59:26;2.85;;;1.75;;
71888;SDS011;59762;49.998;14.858;2023-11-18T03:01:55;2.40;;;1.88;;
71888;SDS011;59762;49.998;14.858;2023-11-18T03:04:21;2.72;;;1.83;;
71888;SDS011;59762;49.998;14.858;2023-11-18T03:06:49;3.67;;;1.92;;
71888;SDS011;59762;49.998;14.858;2023-11-18T03:09:15;2.85;;;2.17;;
71888;SDS011;59762;49.998;14.858;2023-11-18T03:11:41;2.17;;;1.50;;
71888;SDS011;59762;49.998;14.858;2023-11-18T03:14:09;1.92;;;1.48;;
71888;SDS011;59762;49.998;14.858;2023-11-18T03:16:36;2.45;;;2.25;;
71888;SDS011;59762;49.998;14.858;2023-11-18T03:19:03;2.53;;;1.73;;
71888;SDS011;59762;49.998;14.858;2023-11-18T03:21:30;5.05;;;2.33;;
71888;SDS011;59762;49.998;14.858;2023-11-18T03:23:56;2.80;;;2.30;;
71888;SDS011;59762;49.998;14.858;2023-11-18T03:26:21;3.40;;;2.53;;
71888;SDS011;59762;49.998;14.858;2023-11-18T03:28:47;2.72;;;1.42;;
71888;SDS011;59762;49.998;14.858;2023-11-18T03:31:13;2.47;;;1.70;;
71888;SDS011;59762;49.998;14.858;2023-11-18T03:33:40;6.35;;;2.67;;
71888;SDS011;59762;49.998;14.858;2023-11-18T03:36:05;4.78;;;1.92;;
71888;SDS011;59762;49.998;14.858;2023-11-18T03:38:31;4.07;;;2.53;;
71888;SDS011;59762;49.998;14.858;2023-11-18T03:40:57;5.60;;;2.78;;
71888;SDS011;59762;49.998;14.858;2023-11-18T03:43:23;2.65;;;1.73;;
71888;SDS011;59762;49.998;14.858;2023-11-18T03:45:49;3.55;;;2.00;;
71888;SDS011;59762;49.998;14.858;2023-11-18T03:48:15;2.42;;;1.70;;
71888;SDS011;59762;49.998;14.858;2023-11-18T03:50:40;4.30;;;2.13;;
71888;SDS011;59762;49.998;14.858;2023-11-18T03:53:07;4.15;;;2.25;;
71888;SDS011;59762;49.998;14.858;2023-11-18T03:55:32;2.30;;;2.05;;
71888;SDS011;59762;49.998;14.858;2023-11-18T03:57:59;2.22;;;2.00;;
71888;SDS011;59762;49.998;14.858;2023-11-18T04:00:24;3.05;;;2.20;;
71888;SDS011;59762;49.998;14.858;2023-11-18T04:03:01;3.42;;;2.42;;
71888;SDS011;59762;49.998;14.858;2023-11-18T04:05:26;3.92;;;2.08;;
71888;SDS011;59762;49.998;14.858;2023-11-18T04:07:52;2.08;;;1.85;;
71888;SDS011;59762;49.998;14.858;2023-11-18T04:10:18;4.07;;;1.98;;
71888;SDS011;59762;49.998;14.858;2023-11-18T04:12:45;2.40;;;1.67;;
71888;SDS011;59762;49.998;14.858;2023-11-18T04:15:12;4.70;;;1.67;;
71888;SDS011;59762;49.998;14.858;2023-11-18T04:17:38;2.58;;;1.60;;
71888;SDS011;59762;49.998;14.858;2023-11-18T04:20:06;2.80;;;1.58;;
71888;SDS011;59762;49.998;14.858;2023-11-18T04:22:42;4.72;;;1.85;;
71888;SDS011;59762;49.998;14.858;2023-11-18T04:25:09;2.97;;;1.75;;
71888;SDS011;59762;49.998;14.858;2023-11-18T04:27:36;2.55;;;1.80;;
71888;SDS011;59762;49.998;14.858;2023-11-18T04:30:03;3.67;;;2.08;;
71888;SDS011;59762;49.998;14.858;2023-11-18T04:32:30;5.82;;;2.53;;
71888;SDS011;59762;49.998;14.858;2023-11-18T04:34:58;2.03;;;1.75;;
71888;SDS011;59762;49.998;14.858;2023-11-18T04:37:25;4.97;;;2.22;;
71888;SDS011;59762;49.998;14.858;2023-11-18T04:39:51;3.78;;;1.83;;
71888;SDS011;59762;49.998;14.858;2023-11-18T04:42:17;4.25;;;2.42;;
71888;SDS011;59762;49.998;14.858;2023-11-18T04:44:43;4.03;;;1.98;;
71888;SDS011;59762;49.998;14.858;2023-11-18T04:47:09;6.55;;;2.88;;
71888;SDS011;59762;49.998;14.858;2023-11-18T04:49:36;4.63;;;3.35;;
71888;SDS011;59762;49.998;14.858;2023-11-18T04:52:02;2.03;;;1.48;;
71888;SDS011;59762;49.998;14.858;2023-11-18T04:54:27;2.20;;;2.00;;
71888;SDS011;59762;49.998;14.858;2023-11-18T04:56:53;4.18;;;2.35;;
71888;SDS011;59762;49.998;14.858;2023-11-18T04:59:19;3.28;;;2.35;;
71888;SDS011;59762;49.998;14.858;2023-11-18T05:01:45;3.05;;;2.33;;
71888;SDS011;59762;49.998;14.858;2023-11-18T05:04:10;5.72;;;1.92;;
71888;SDS011;59762;49.998;14.858;2023-11-18T05:06:36;5.28;;;3.00;;
71888;SDS011;59762;49.998;14.858;2023-11-18T05:09:02;4.80;;;2.45;;
71888;SDS011;59762;49.998;14.858;2023-11-18T05:11:28;3.00;;;2.15;;
71888;SDS011;59762;49.998;14.858;2023-11-18T05:13:53;3.17;;;2.10;;
71888;SDS011;59762;49.998;14.858;2023-11-18T05:16:19;3.08;;;2.28;;
71888;SDS011;59762;49.998;14.858;2023-11-18T05:18:45;2.30;;;1.55;;
71888;SDS011;59762;49.998;14.858;2023-11-18T05:21:10;1.52;;;1.27;;
71888;SDS011;59762;49.998;14.858;2023-11-18T05:23:36;2.40;;;2.00;;
71888;SDS011;59762;49.998;14.858;2023-11-18T05:26:02;4.18;;;1.70;;
71888;SDS011;59762;49.998;14.858;2023-11-18T05:28:31;3.13;;;1.75;;
71888;SDS011;59762;49.998;14.858;2023-11-18T05:30:57;2.47;;;2.00;;
71888;SDS011;59762;49.998;14.858;2023-11-18T05:33:27;2.95;;;1.90;;
71888;SDS011;59762;49.998;14.858;2023-11-18T05:35:54;1.77;;;1.25;;
71888;SDS011;59762;49.998;14.858;2023-11-18T05:38:20;1.98;;;1.58;;
71888;SDS011;59762;49.998;14.858;2023-11-18T05:40:47;3.22;;;1.75;;
71888;SDS011;59762;49.998;14.858;2023-11-18T05:43:23;2.15;;;1.38;;
71888;SDS011;59762;49.998;14.858;2023-11-18T05:45:51;3.13;;;1.38;;
71888;SDS011;59762;49.998;14.858;2023-11-18T05:48:35;4.00;;;1.75;;
71888;SDS011;59762;49.998;14.858;2023-11-18T05:51:01;2.50;;;2.20;;
71888;SDS011;59762;49.998;14.858;2023-11-18T05:53:27;7.43;;;4.93;;
71888;SDS011;59762;49.998;14.858;2023-11-18T05:55:53;16.95;;;9.35;;
71888;SDS011;59762;49.998;14.858;2023-11-18T05:58:18;6.00;;;3.30;;
71888;SDS011;59762;49.998;14.858;2023-11-18T06:00:46;4.53;;;2.55;;
71888;SDS011;59762;49.998;14.858;2023-11-18T06:03:12;3.05;;;1.63;;
71888;SDS011;59762;49.998;14.858;2023-11-18T06:05:38;5.72;;;1.70;;
71888;SDS011;59762;49.998;14.858;2023-11-18T06:08:05;13.23;;;7.88;;
71888;SDS011;59762;49.998;14.858;2023-11-18T06:10:30;3.70;;;1.85;;
71888;SDS011;59762;49.998;14.858;2023-11-18T06:12:59;1.17;;;1.08;;
71888;SDS011;59762;49.998;14.858;2023-11-18T06:15:25;2.97;;;2.05;;
71888;SDS011;59762;49.998;14.858;2023-11-18T06:17:53;3.83;;;1.77;;
71888;SDS011;59762;49.998;14.858;2023-11-18T06:20:20;3.70;;;2.13;;
71888;SDS011;59762;49.998;14.858;2023-11-18T06:22:48;2.17;;;1.65;;
71888;SDS011;59762;49.998;14.858;2023-11-18T06:25:15;1.90;;;1.25;;
71888;SDS011;59762;49.998;14.858;2023-11-18T06:27:44;2.70;;;1.30;;
71888;SDS011;59762;49.998;14.858;2023-11-18T06:30:11;2.17;;;1.17;;
71888;SDS011;59762;49.998;14.858;2023-11-18T06:32:37;7.22;;;1.25;;
71888;SDS011;59762;49.998;14.858;2023-11-18T06:35:04;1.75;;;1.33;;
71888;SDS011;59762;49.998;14.858;2023-11-18T06:37:33;2.35;;;1.40;;
71888;SDS011;59762;49.998;14.858;2023-11-18T06:39:59;2.45;;;1.65;;
71888;SDS011;59762;49.998;14.858;2023-11-18T06:42:25;1.85;;;1.33;;
71888;SDS011;59762;49.998;14.858;2023-11-18T06:44:51;2.33;;;2.00;;
71888;SDS011;59762;49.998;14.858;2023-11-18T06:47:17;2.28;;;1.27;;
71888;SDS011;59762;49.998;14.858;2023-11-18T06:49:44;2.38;;;1.42;;
71888;SDS011;59762;49.998;14.858;2023-11-18T06:52:12;1.88;;;1.13;;
71888;SDS011;59762;49.998;14.858;2023-11-18T06:54:41;1.73;;;1.40;;
71888;SDS011;59762;49.998;14.858;2023-11-18T06:57:07;2.97;;;1.10;;
71888;SDS011;59762;49.998;14.858;2023-11-18T06:59:33;1.42;;;1.27;;
71888;SDS011;59762;49.998;14.858;2023-11-18T07:01:58;2.03;;;1.35;;
71888;SDS011;59762;49.998;14.858;2023-11-18T07:04:24;1.23;;;0.80;;
71888;SDS011;59762;49.998;14.858;2023-11-18T07:06:50;0.98;;;0.82;;
71888;SDS011;59762;49.998;14.858;2023-11-18T07:09:16;2.10;;;1.25;;
71888;SDS011;59762;49.998;14.858;2023-11-18T07:11:46;2.80;;;1.42;;
71888;SDS011;59762;49.998;14.858;2023-11-18T07:14:13;1.95;;;1.30;;
71888;SDS011;59762;49.998;14.858;2023-11-18T07:16:40;3.15;;;1.33;;
71888;SDS011;59762;49.998;14.858;2023-11-18T07:19:07;1.70;;;1.20;;
71888;SDS011;59762;49.998;14.858;2023-11-18T07:21:33;1.13;;;1.00;;
71888;SDS011;59762;49.998;14.858;2023-11-18T07:23:59;1.45;;;1.20;;
71888;SDS011;59762;49.998;14.858;2023-11-18T07:26:25;1.45;;;0.80;;
71888;SDS011;59762;49.998;14.858;2023-11-18T07:28:51;0.80;;;0.73;;
71888;SDS011;59762;49.998;14.858;2023-11-18T07:31:17;1.33;;;0.70;;
71888;SDS011;59762;49.998;14.858;2023-11-18T07:33:48;0.82;;;0.82;;
71888;SDS011;59762;49.998;14.858;2023-11-18T07:36:17;0.55;;;0.55;;
71888;SDS011;59762;49.998;14.858;2023-11-18T07:38:45;3.25;;;0.50;;
71888;SDS011;59762;49.998;14.858;2023-11-18T07:41:11;1.20;;;0.80;;
71888;SDS011;59762;49.998;14.858;2023-11-18T07:43:52;1.48;;;1.15;;
71888;SDS011;59762;49.998;14.858;2023-11-18T07:46:20;1.40;;;0.75;;
71888;SDS011;59762;49.998;14.858;2023-11-18T07:48:48;0.80;;;0.65;;
71888;SDS011;59762;49.998;14.858;2023-11-18T07:51:15;0.98;;;0.85;;
71888;SDS011;59762;49.998;14.858;2023-11-18T07:53:41;0.93;;;0.50;;
71888;SDS011;59762;49.998;14.858;2023-11-18T07:56:07;0.82;;;0.75;;
71888;SDS011;59762;49.998;14.858;2023-11-18T07:58:37;1.25;;;0.90;;
71888;SDS011;59762;49.998;14.858;2023-11-18T08:01:03;2.03;;;1.15;;
71888;SDS011;59762;49.998;14.858;2023-11-18T08:03:33;0.50;;;0.50;;
71888;SDS011;59762;49.998;14.858;2023-11-18T08:05:59;0.80;;;0.70;;
71888;SDS011;59762;49.998;14.858;2023-11-18T08:08:25;0.63;;;0.60;;
71888;SDS011;59762;49.998;14.858;2023-11-18T08:10:50;0.77;;;0.60;;
71888;SDS011;59762;49.998;14.858;2023-11-18T08:13:16;0.80;;;0.80;;
71888;SDS011;59762;49.998;14.858;2023-11-18T08:15:42;1.58;;;0.85;;
71888;SDS011;59762;49.998;14.858;2023-11-18T08:18:12;2.10;;;1.35;;
71888;SDS011;59762;49.998;14.858;2023-11-18T08:20:37;0.95;;;0.90;;
71888;SDS011;59762;49.998;14.858;2023-11-18T08:23:04;2.25;;;0.70;;
71888;SDS011;59762;49.998;14.858;2023-11-18T08:25:32;1.77;;;0.90;;
71888;SDS011;59762;49.998;14.858;2023-11-18T08:27:59;1.05;;;0.65;;
71888;SDS011;59762;49.998;14.858;2023-11-18T08:30:26;0.88;;;0.68;;
71888;SDS011;59762;49.998;14.858;2023-11-18T08:32:51;2.00;;;0.90;;
71888;SDS011;59762;49.998;14.858;2023-11-18T08:35:17;1.27;;;0.80;;
71888;SDS011;59762;49.998;14.858;2023-11-18T08:37:44;1.40;;;0.70;;
71888;SDS011;59762;49.998;14.858;2023-11-18T08:40:12;0.60;;;0.60;;
71888;SDS011;59762;49.998;14.858;2023-11-18T08:45:14;1.08;;;0.68;;
71888;SDS011;59762;49.998;14.858;2023-11-18T08:47:42;0.80;;;0.60;;
71888;SDS011;59762;49.998;14.858;2023-11-18T08:50:09;0.82;;;0.70;;
71888;SDS011;59762;49.998;14.858;2023-11-18T08:52:38;1.23;;;0.93;;
71888;SDS011;59762;49.998;14.858;2023-11-18T08:55:11;1.70;;;1.05;;
71888;SDS011;59762;49.998;14.858;2023-11-18T08:57:49;0.77;;;0.63;;
71888;SDS011;59762;49.998;14.858;2023-11-18T09:00:25;1.45;;;0.73;;
71888;SDS011;59762;49.998;14.858;2023-11-18T09:03:31;1.30;;;0.80;;
71888;SDS011;59762;49.998;14.858;2023-11-18T09:06:02;1.63;;;0.68;;
71888;SDS011;59762;49.998;14.858;2023-11-18T09:08:43;0.60;;;0.60;;
71888;SDS011;59762;49.998;14.858;2023-11-18T09:11:18;0.75;;;0.45;;
71888;SDS011;59762;49.998;14.858;2023-11-18T09:13:45;0.80;;;0.60;;
71888;SDS011;59762;49.998;14.858;2023-11-18T09:16:19;0.93;;;0.67;;
71888;SDS011;59762;49.998;14.858;2023-11-18T09:18:48;0.77;;;0.60;;
71888;SDS011;59762;49.998;14.858;2023-11-18T09:21:14;1.17;;;0.50;;
71888;SDS011;59762;49.998;14.858;2023-11-18T09:23:41;0.82;;;0.70;;
71888;SDS011;59762;49.998;14.858;2023-11-18T09:26:08;0.60;;;0.60;;
71888;SDS011;59762;49.998;14.858;2023-11-18T09:28:35;2.60;;;1.15;;
71888;SDS011;59762;49.998;14.858;2023-11-18T09:31:02;2.58;;;1.20;;
71888;SDS011;59762;49.998;14.858;2023-11-18T09:33:37;1.95;;;0.57;;
71888;SDS011;59762;49.998;14.858;2023-11-18T09:36:05;1.85;;;0.93;;
71888;SDS011;59762;49.998;14.858;2023-11-18T09:38:34;5.10;;;1.60;;
71888;SDS011;59762;49.998;14.858;2023-11-18T09:41:01;0.60;;;0.60;;
71888;SDS011;59762;49.998;14.858;2023-11-18T09:43:29;2.13;;;0.65;;
71888;SDS011;59762;49.998;14.858;2023-11-18T09:46:03;2.50;;;1.30;;
71888;SDS011;59762;49.998;14.858;2023-11-18T09:49:24;2.15;;;1.05;;
71888;SDS011;59762;49.998;14.858;2023-11-18T09:51:58;2.33;;;1.13;;
71888;SDS011;59762;49.998;14.858;2023-11-18T10:00:02;0.98;;;0.70;;
71888;SDS011;59762;49.998;14.858;2023-11-18T10:02:50;0.35;;;0.35;;
71888;SDS011;59762;49.998;14.858;2023-11-18T10:05:17;3.03;;;1.77;;
71888;SDS011;59762;49.998;14.858;2023-11-18T10:07:49;1.52;;;1.23;;
71888;SDS011;59762;49.998;14.858;2023-11-18T10:10:15;0.75;;;0.60;;
71888;SDS011;59762;49.998;14.858;2023-11-18T10:12:44;0.75;;;0.65;;
71888;SDS011;59762;49.998;14.858;2023-11-18T10:15:13;0.73;;;0.57;;
71888;SDS011;59762;49.998;14.858;2023-11-18T10:17:43;1.45;;;1.15;;
71888;SDS011;59762;49.998;14.858;2023-11-18T10:23:10;1.33;;;1.08;;
71888;SDS011;59762;49.998;14.858;2023-11-18T10:25:37;0.85;;;0.80;;
71888;SDS011;59762;49.998;14.858;2023-11-18T10:28:32;0.73;;;0.67;;
71888;SDS011;59762;49.998;14.858;2023-11-18T10:31:02;1.10;;;0.80;;
71888;SDS011;59762;49.998;14.858;2023-11-18T10:33:30;0.70;;;0.70;;
71888;SDS011;59762;49.998;14.858;2023-11-18T10:35:57;0.60;;;0.55;;
71888;SDS011;59762;49.998;14.858;2023-11-18T10:38:23;2.00;;;1.23;;
71888;SDS011;59762;49.998;14.858;2023-11-18T10:40:55;1.38;;;0.90;;
71888;SDS011;59762;49.998;14.858;2023-11-18T10:43:23;0.60;;;0.60;;
71888;SDS011;59762;49.998;14.858;2023-11-18T10:45:51;0.70;;;0.70;;
71888;SDS011;59762;49.998;14.858;2023-11-18T10:48:17;0.70;;;0.68;;
71888;SDS011;59762;49.998;14.858;2023-11-18T10:50:46;0.40;;;0.40;;
71888;SDS011;59762;49.998;14.858;2023-11-18T10:53:16;0.52;;;0.50;;
71888;SDS011;59762;49.998;14.858;2023-11-18T10:55:44;1.33;;;0.52;;
71888;SDS011;59762;49.998;14.858;2023-11-18T10:58:10;0.38;;;0.38;;
71888;SDS011;59762;49.998;14.858;2023-11-18T11:00:49;1.65;;;0.80;;
71888;SDS011;59762;49.998;14.858;2023-11-18T11:03:16;2.30;;;0.75;;
71888;SDS011;59762;49.998;14.858;2023-11-18T11:05:44;0.77;;;0.68;;
71888;SDS011;59762;49.998;14.858;2023-11-18T11:08:13;1.08;;;1.00;;
71888;SDS011;59762;49.998;14.858;2023-11-18T11:10:42;0.63;;;0.63;;
71888;SDS011;59762;49.998;14.858;2023-11-18T11:13:08;0.90;;;0.85;;
71888;SDS011;59762;49.998;14.858;2023-11-18T11:15:36;1.15;;;1.00;;
71888;SDS011;59762;49.998;14.858;2023-11-18T11:18:08;1.50;;;1.00;;
71888;SDS011;59762;49.998;14.858;2023-11-18T11:20:57;1.85;;;0.95;;
71888;SDS011;59762;49.998;14.858;2023-11-18T11:23:35;3.28;;;1.10;;
71888;SDS011;59762;49.998;14.858;2023-11-18T11:26:45;0.93;;;0.80;;
71888;SDS011;59762;49.998;14.858;2023-11-18T11:32:39;1.75;;;1.27;;
71888;SDS011;59762;49.998;14.858;2023-11-18T11:35:15;2.47;;;1.42;;
71888;SDS011;59762;49.998;14.858;2023-11-18T11:37:49;2.85;;;1.92;;
71888;SDS011;59762;49.998;14.858;2023-11-18T11:40:20;2.70;;;1.30;;
71888;SDS011;59762;49.998;14.858;2023-11-18T11:42:50;2.63;;;1.55;;
71888;SDS011;59762;49.998;14.858;2023-11-18T11:45:24;1.48;;;1.13;;
71888;SDS011;59762;49.998;14.858;2023-11-18T11:47:57;1.60;;;0.88;;
71888;SDS011;59762;49.998;14.858;2023-11-18T11:50:48;2.45;;;1.30;;
71888;SDS011;59762;49.998;14.858;2023-11-18T11:53:23;1.70;;;1.27;;
71888;SDS011;59762;49.998;14.858;2023-11-18T11:55:53;1.33;;;1.02;;
71888;SDS011;59762;49.998;14.858;2023-11-18T11:58:30;1.13;;;0.82;;
71888;SDS011;59762;49.998;14.858;2023-11-18T12:01:02;3.58;;;1.48;;
71888;SDS011;59762;49.998;14.858;2023-11-18T12:03:43;1.17;;;0.90;;
71888;SDS011;59762;49.998;14.858;2023-11-18T12:06:19;2.22;;;1.40;;
71888;SDS011;59762;49.998;14.858;2023-11-18T12:08:51;2.40;;;1.33;;
71888;SDS011;59762;49.998;14.858;2023-11-18T12:11:17;1.52;;;1.08;;
71888;SDS011;59762;49.998;14.858;2023-11-18T12:13:59;3.60;;;1.10;;
71888;SDS011;59762;49.998;14.858;2023-11-18T12:17:04;2.08;;;0.98;;
71888;SDS011;59762;49.998;14.858;2023-11-18T12:19:37;1.88;;;1.42;;
71888;SDS011;59762;49.998;14.858;2023-11-18T12:22:19;3.85;;;1.25;;
71888;SDS011;59762;49.998;14.858;2023-11-18T12:35:25;1.23;;;0.67;;
71888;SDS011;59762;49.998;14.858;2023-11-18T12:41:00;1.75;;;1.33;;
71888;SDS011;59762;49.998;14.858;2023-11-18T12:43:48;1.40;;;0.90;;
71888;SDS011;59762;49.998;14.858;2023-11-18T12:52:10;1.30;;;0.93;;
71888;SDS011;59762;49.998;14.858;2023-11-18T12:54:38;1.10;;;1.00;;
71888;SDS011;59762;49.998;14.858;2023-11-18T12:57:06;4.25;;;1.77;;
71888;SDS011;59762;49.998;14.858;2023-11-18T12:59:33;2.28;;;1.23;;
71888;SDS011;59762;49.998;14.858;2023-11-18T13:01:59;3.78;;;1.63;;
71888;SDS011;59762;49.998;14.858;2023-11-18T13:04:29;1.00;;;0.93;;
71888;SDS011;59762;49.998;14.858;2023-11-18T13:06:56;1.70;;;1.30;;
71888;SDS011;59762;49.998;14.858;2023-11-18T13:09:23;1.15;;;1.05;;
71888;SDS011;59762;49.998;14.858;2023-11-18T13:11:55;4.13;;;1.40;;
71888;SDS011;59762;49.998;14.858;2023-11-18T13:14:23;1.10;;;0.90;;
71888;SDS011;59762;49.998;14.858;2023-11-18T13:16:53;1.80;;;1.17;;
71888;SDS011;59762;49.998;14.858;2023-11-18T13:19:27;2.42;;;1.35;;
71888;SDS011;59762;49.998;14.858;2023-11-18T13:21:57;1.38;;;0.82;;
71888;SDS011;59762;49.998;14.858;2023-11-18T13:24:26;2.25;;;1.27;;
71888;SDS011;59762;49.998;14.858;2023-11-18T13:26:56;2.42;;;1.10;;
71888;SDS011;59762;49.998;14.858;2023-11-18T13:29:23;1.63;;;1.30;;
71888;SDS011;59762;49.998;14.858;2023-11-18T13:31:50;3.50;;;1.20;;
71888;SDS011;59762;49.998;14.858;2023-11-18T13:34:19;2.05;;;1.80;;
71888;SDS011;59762;49.998;14.858;2023-11-18T13:36:46;1.40;;;1.25;;
71888;SDS011;59762;49.998;14.858;2023-11-18T13:39:19;2.08;;;1.27;;
71888;SDS011;59762;49.998;14.858;2023-11-18T13:41:54;2.75;;;1.50;;
71888;SDS011;59762;49.998;14.858;2023-11-18T13:47:06;1.70;;;0.80;;
71888;SDS011;59762;49.998;14.858;2023-11-18T13:49:36;2.20;;;1.42;;
71888;SDS011;59762;49.998;14.858;2023-11-18T13:52:06;1.77;;;0.95;;
71888;SDS011;59762;49.998;14.858;2023-11-18T13:54:34;1.95;;;1.40;;
71888;SDS011;59762;49.998;14.858;2023-11-18T13:57:01;1.48;;;1.20;;
71888;SDS011;59762;49.998;14.858;2023-11-18T13:59:28;1.92;;;1.20;;
71888;SDS011;59762;49.998;14.858;2023-11-18T14:01:55;1.48;;;1.38;;
71888;SDS011;59762;49.998;14.858;2023-11-18T14:04:23;3.55;;;1.33;;
71888;SDS011;59762;49.998;14.858;2023-11-18T14:06:56;1.88;;;1.55;;
71888;SDS011;59762;49.998;14.858;2023-11-18T14:09:22;2.92;;;1.58;;
71888;SDS011;59762;49.998;14.858;2023-11-18T14:11:53;3.58;;;1.50;;
71888;SDS011;59762;49.998;14.858;2023-11-18T14:14:22;1.98;;;1.20;;
71888;SDS011;59762;49.998;14.858;2023-11-18T14:16:50;1.42;;;1.25;;
71888;SDS011;59762;49.998;14.858;2023-11-18T14:19:19;2.17;;;1.08;;
71888;SDS011;59762;49.998;14.858;2023-11-18T14:21:45;2.17;;;1.42;;
71888;SDS011;59762;49.998;14.858;2023-11-18T14:24:11;3.80;;;1.42;;
71888;SDS011;59762;49.998;14.858;2023-11-18T14:26:37;2.75;;;1.52;;
71888;SDS011;59762;49.998;14.858;2023-11-18T14:29:05;4.40;;;1.40;;
71888;SDS011;59762;49.998;14.858;2023-11-18T14:31:35;2.45;;;1.70;;
71888;SDS011;59762;49.998;14.858;2023-11-18T14:34:01;3.20;;;1.83;;
71888;SDS011;59762;49.998;14.858;2023-11-18T14:36:27;1.63;;;1.35;;
71888;SDS011;59762;49.998;14.858;2023-11-18T14:38:53;2.45;;;1.33;;
71888;SDS011;59762;49.998;14.858;2023-11-18T14:41:18;1.92;;;1.50;;
71888;SDS011;59762;49.998;14.858;2023-11-18T14:43:45;2.85;;;1.42;;
71888;SDS011;59762;49.998;14.858;2023-11-18T14:46:11;1.50;;;1.30;;
71888;SDS011;59762;49.998;14.858;2023-11-18T14:48:38;2.22;;;1.80;;
71888;SDS011;59762;49.998;14.858;2023-11-18T14:51:04;3.53;;;1.90;;
71888;SDS011;59762;49.998;14.858;2023-11-18T14:53:32;1.77;;;1.67;;
71888;SDS011;59762;49.998;14.858;2023-11-18T14:55:59;3.53;;;1.85;;
71888;SDS011;59762;49.998;14.858;2023-11-18T14:58:25;2.63;;;1.80;;
71888;SDS011;59762;49.998;14.858;2023-11-18T15:00:51;4.97;;;2.22;;
71888;SDS011;59762;49.998;14.858;2023-11-18T15:03:22;2.47;;;1.88;;
71888;SDS011;59762;49.998;14.858;2023-11-18T15:05:48;6.80;;;2.00;;
71888;SDS011;59762;49.998;14.858;2023-11-18T15:08:15;2.08;;;1.80;;
71888;SDS011;59762;49.998;14.858;2023-11-18T15:10:41;2.08;;;1.30;;
71888;SDS011;59762;49.998;14.858;2023-11-18T15:13:09;3.30;;;2.85;;
71888;SDS011;59762;49.998;14.858;2023-11-18T15:15:42;7.68;;;3.75;;
71888;SDS011;59762;49.998;14.858;2023-11-18T15:18:12;43.28;;;15.38;;
71888;SDS011;59762;49.998;14.858;2023-11-18T15:20:40;33.70;;;13.50;;
71888;SDS011;59762;49.998;14.858;2023-11-18T15:23:08;57.67;;;20.67;;